Calypso — IYQT — position and weather

sailwx.info

Track history (hours):
 
Tides and Currents Weather Stations Pressure Air Temp Water Temp Dewpoint Dewpoint Depression Visibility Wind Speed Wind Dir Waves Ship Positions

Calypso

Last reported at 2016-Sep-23 06:34 UTC. Time now 2016-Sep-27 01:56 UTC.
Position N 38°23' E 015°05'.

Length 32 m; draft 4.2 m.

Type: High speed craft. MMSI: 247143200.

Date/timePositionNaut miles runAvg speedWind from/ knotsBaromVisibWave heightAir tempDewpointWater temp
2016-Sep-23 06:34N 38°23' E 015°05'13 0.7
2016-Sep-22 12:33N 38°13' E 015°14'1 0.0
2016-Sep-21 16:33N 38°13' E 015°16'23 3.1
2016-Sep-21 09:05N 38°31' E 014°58'610.6
2016-Sep-21 08:33N 38°26' E 014°59'18 1.2
2016-Sep-20 17:33N 38°13' E 015°15'0 0.0
2016-Sep-20 14:33N 38°13' E 015°15'0 0.3
2016-Sep-20 13:33N 38°13' E 015°15'0 0.1
2016-Sep-20 10:33N 38°13' E 015°14'16 7.8
2016-Sep-20 08:29N 38°25' E 014°60'1617.5
2016-Sep-20 07:34N 38°13' E 015°14'1111.4
2016-Sep-20 06:33N 38°24' E 015°10'11 0.7
2016-Sep-19 16:11N 38°28' E 014°57'2010.9
2016-Sep-19 14:19N 38°13' E 015°15'0 0.4
2016-Sep-19 13:34N 38°13' E 015°15'0 0.1
2016-Sep-19 12:33N 38°13' E 015°15'0 0.4
2016-Sep-19 11:34N 38°13' E 015°14'20 8.6
2016-Sep-19 09:15N 38°28' E 014°58'2011.6
2016-Sep-19 07:33N 38°13' E 015°14'1312.8
2016-Sep-19 06:33N 38°25' E 015°08'9 0.6
2016-Sep-18 15:33N 38°28' E 014°58'2020.6
2016-Sep-18 14:33N 38°13' E 015°15'0 0.0
2016-Sep-18 10:33N 38°13' E 015°14'1717.4
2016-Sep-18 09:34N 38°27' E 015°01'18 0.9
2016-Sep-17 13:33N 38°13' E 015°15'7 7.5
2016-Sep-17 12:34N 38°19' E 015°10'7 3.6
2016-Sep-17 10:33N 38°13' E 015°15'1312.5
2016-Sep-17 09:33N 38°24' E 015°06'6 5.8
2016-Sep-17 08:29N 38°25' E 014°58'1719.1
2016-Sep-17 07:34N 38°13' E 015°14'2110.3
2016-Sep-17 05:33N 38°30' E 014°59'1 1.2
2016-Sep-17 04:33N 38°29' E 014°59'20 1.8
2016-Sep-16 17:33N 38°13' E 015°15'19 9.4
2016-Sep-16 15:33N 38°27' E 014°58'11 3.7
2016-Sep-16 12:34N 38°19' E 015°09'1 0.5
2016-Sep-16 09:34N 38°20' E 015°10'8 3.9
2016-Sep-16 07:33N 38°13' E 015°14'18 1.4
2016-Sep-15 18:34N 38°25' E 014°59'11 1.8
2016-Sep-15 12:34N 38°20' E 015°10'1110.9
2016-Sep-15 11:33N 38°26' E 014°59'3 0.4
2016-Sep-15 04:33N 38°29' E 014°59'20 1.8
2016-Sep-14 17:33N 38°13' E 015°15'5 5.4
2016-Sep-14 16:33N 38°18' E 015°13'6 1.9
2016-Sep-14 13:33N 38°13' E 015°15'7 7.1
2016-Sep-14 12:33N 38°19' E 015°11'7 3.4
2016-Sep-14 10:33N 38°13' E 015°15'9 8.7
2016-Sep-14 09:33N 38°21' E 015°10'10 9.3
2016-Sep-14 08:28N 38°25' E 014°58'1819.3
2016-Sep-14 07:33N 38°13' E 015°14'6 6.2
2016-Sep-14 06:33N 38°19' E 015°12'14 1.2
2016-Sep-13 18:32N 38°28' E 014°58'2020.3
2016-Sep-13 17:33N 38°13' E 015°15'5 5.0
2016-Sep-13 16:34N 38°18' E 015°14'8 1.5
2016-Sep-13 11:12N 38°22' E 015°05'4 2.6
2016-Sep-13 09:33N 38°21' E 015°10'9 4.3
2016-Sep-13 07:30N 38°13' E 015°14'  
Track history (hours):
 
Tides and Currents Weather Stations Pressure Air Temp Water Temp Dewpoint Dewpoint Depression Visibility Wind Speed Wind Dir Waves Ship Positions

Calypso

Last reported at 2016-Sep-23 06:34 UTC. Time now 2016-Sep-27 01:56 UTC.
Position N 38°23' E 015°05'.

Length 32 m; draft 4.2 m.

Type: High speed craft. MMSI: 247143200.

Date/timePositionNaut miles runAvg speedWind from/ knotsBaromVisibWave heightAir tempDewpointWater temp
2016-Sep-23 06:34N 38°23' E 015°05'13 0.7
2016-Sep-22 12:33N 38°13' E 015°14'1 0.0
2016-Sep-21 16:33N 38°13' E 015°16'23 3.1
2016-Sep-21 09:05N 38°31' E 014°58'610.6
2016-Sep-21 08:33N 38°26' E 014°59'18 1.2
2016-Sep-20 17:33N 38°13' E 015°15'0 0.0
2016-Sep-20 14:33N 38°13' E 015°15'0 0.3
2016-Sep-20 13:33N 38°13' E 015°15'0 0.1
2016-Sep-20 10:33N 38°13' E 015°14'16 7.8
2016-Sep-20 08:29N 38°25' E 014°60'1617.5
2016-Sep-20 07:34N 38°13' E 015°14'1111.4
2016-Sep-20 06:33N 38°24' E 015°10'11 0.7
2016-Sep-19 16:11N 38°28' E 014°57'2010.9
2016-Sep-19 14:19N 38°13' E 015°15'0 0.4
2016-Sep-19 13:34N 38°13' E 015°15'0 0.1
2016-Sep-19 12:33N 38°13' E 015°15'0 0.4
2016-Sep-19 11:34N 38°13' E 015°14'20 8.6
2016-Sep-19 09:15N 38°28' E 014°58'2011.6
2016-Sep-19 07:33N 38°13' E 015°14'1312.8
2016-Sep-19 06:33N 38°25' E 015°08'9 0.6
2016-Sep-18 15:33N 38°28' E 014°58'2020.6
2016-Sep-18 14:33N 38°13' E 015°15'0 0.0
2016-Sep-18 10:33N 38°13' E 015°14'1717.4
2016-Sep-18 09:34N 38°27' E 015°01'18 0.9
2016-Sep-17 13:33N 38°13' E 015°15'7 7.5
2016-Sep-17 12:34N 38°19' E 015°10'7 3.6
2016-Sep-17 10:33N 38°13' E 015°15'1312.5
2016-Sep-17 09:33N 38°24' E 015°06'6 5.8
2016-Sep-17 08:29N 38°25' E 014°58'1719.1
2016-Sep-17 07:34N 38°13' E 015°14'2110.3
2016-Sep-17 05:33N 38°30' E 014°59'1 1.2
2016-Sep-17 04:33N 38°29' E 014°59'20 1.8
2016-Sep-16 17:33N 38°13' E 015°15'19 9.4
2016-Sep-16 15:33N 38°27' E 014°58'11 3.7
2016-Sep-16 12:34N 38°19' E 015°09'1 0.5
2016-Sep-16 09:34N 38°20' E 015°10'8 3.9
2016-Sep-16 07:33N 38°13' E 015°14'18 1.4
2016-Sep-15 18:34N 38°25' E 014°59'11 1.8
2016-Sep-15 12:34N 38°20' E 015°10'1110.9
2016-Sep-15 11:33N 38°26' E 014°59'3 0.4
2016-Sep-15 04:33N 38°29' E 014°59'20 1.8
2016-Sep-14 17:33N 38°13' E 015°15'5 5.4
2016-Sep-14 16:33N 38°18' E 015°13'6 1.9
2016-Sep-14 13:33N 38°13' E 015°15'7 7.1
2016-Sep-14 12:33N 38°19' E 015°11'7 3.4
2016-Sep-14 10:33N 38°13' E 015°15'9 8.7
2016-Sep-14 09:33N 38°21' E 015°10'10 9.3
2016-Sep-14 08:28N 38°25' E 014°58'1819.3
2016-Sep-14 07:33N 38°13' E 015°14'6 6.2
2016-Sep-14 06:33N 38°19' E 015°12'14 1.2
2016-Sep-13 18:32N 38°28' E 014°58'2020.3
2016-Sep-13 17:33N 38°13' E 015°15'5 5.0
2016-Sep-13 16:34N 38°18' E 015°14'8 1.5
2016-Sep-13 11:12N 38°22' E 015°05'4 2.6
2016-Sep-13 09:33N 38°21' E 015°10'9 4.3
2016-Sep-13 07:30N 38°13' E 015°14'  

Dump ship's entire track history